Time;durP1;ratioP1;P1;durP2;ratioP2;P2;SDS_P1;SDS_P2;PMS_P1;PMS_P2;Temp;Humidity;BMP_temperature;BMP_pressure;BME280_temperature;BME280_humidity;BME280_pressure;Samples;Min_cycle;Max_cycle;Signal;HPM_P1;HPM_P2
2022/11/17 06:57:22;;;;;;;2.58;1.17;;;;;;;;;;10603043;27;20433;-84
2022/11/17 07:02:43;;;;;;;5.85;1.80;;;;;;;;;;10599478;28;20054;-84
2022/11/17 07:08:05;;;;;;;2.80;1.20;;;;;;;;;;10602620;28;20055;-84
2022/11/17 07:13:13;;;;;;;4.80;1.42;;;;;;;;;;10603574;28;20281;-84
2022/11/17 07:18:15;;;;;;;3.38;1.10;;;;;;;;;;10608764;28;20420;-83
2022/11/17 07:23:16;;;;;;;5.25;1.33;;;;;;;;;;10605563;28;20081;-83
2022/11/17 07:28:17;;;;;;;2.53;1.20;;;;;;;;;;10606294;28;20123;-83
2022/11/17 07:33:24;;;;;;;3.78;1.08;;;;;;;;;;10607939;28;20040;-84
2022/11/17 07:38:27;;;;;;;2.60;1.25;;;;;;;;;;10606125;27;20039;-83
2022/11/17 07:43:27;;;;;;;;;;;;;;;;;;10602588;28;20058;-83
2022/11/17 07:48:29;;;;;;;3.17;1.38;;;;;;;;;;10600160;28;19908;-82
2022/11/17 07:53:31;;;;;;;2.45;1.08;;;;;;;;;;10598845;28;20445;-82
2022/11/17 07:58:32;;;;;;;4.00;1.08;;;;;;;;;;10621858;28;20036;-83
2022/11/17 08:03:56;;;;;;;4.57;1.70;;;;;;;;;;10612691;28;20020;-83
2022/11/17 08:09:15;;;;;;;5.13;1.70;;;;;;;;;;10525832;28;20027;-83
2022/11/17 08:14:23;;;;;;;2.15;0.85;;;;;;;;;;10527339;28;20048;-83
2022/11/17 08:30:03;;;;;;;2.58;1.00;;;;;;;;;;10665835;22;20058;-83
2022/11/17 08:35:06;;;;;;;1.58;0.80;;;;;;;;;;10372985;28;20030;-81
2022/11/17 08:40:08;;;;;;;1.73;0.88;;;;;;;;;;10356032;28;20057;-81
2022/11/17 08:56:34;;;;;;;1.95;0.70;;;;;;;;;;10402275;28;20026;-84
2022/11/17 09:25:00;;;;;;;3.70;1.92;;;;;;;;;;10401622;28;20042;-85
2022/11/17 09:41:46;;;;;;;2.15;1.27;;;;;;;;;;10397189;28;20042;-83
2022/11/17 09:47:26;;;;;;;2.60;1.70;;;;;;;;;;10309663;28;20038;-85
2022/11/17 10:21:23;;;;;;;3.03;1.10;;;;;;;;;;10420416;23;20057;-80
2022/11/17 10:26:24;;;;;;;3.78;1.40;;;;;;;;;;10500916;28;20194;-83
2022/11/17 10:31:25;;;;;;;2.58;1.23;;;;;;;;;;10533079;28;20030;-84
2022/11/17 10:36:26;;;;;;;;;;;;;;;;;;10531059;28;20115;-85
2022/11/17 10:41:39;;;;;;;3.17;1.30;;;;;;;;;;10532396;28;19908;-83
2022/11/17 10:46:55;;;;;;;2.70;1.23;;;;;;;;;;10530698;28;20035;-83
2022/11/17 10:52:07;;;;;;;3.53;1.10;;;;;;;;;;10530015;28;20112;-83
2022/11/17 10:57:23;;;;;;;3.42;0.90;;;;;;;;;;10530570;28;20036;-83
2022/11/17 11:02:28;;;;;;;4.28;2.40;;;;;;;;;;10537036;28;20082;-83
2022/11/17 11:08:06;;;;;;;5.03;1.25;;;;;;;;;;10532782;28;20050;-85
2022/11/17 11:13:26;;;;;;;2.78;0.90;;;;;;;;;;10529563;28;20055;-86
2022/11/17 11:18:29;;;;;;;1.77;1.00;;;;;;;;;;10532795;28;20035;-82
2022/11/17 11:23:49;;;;;;;4.35;0.90;;;;;;;;;;10527966;28;20024;-85
2022/11/17 11:28:50;;;;;;;2.80;1.40;;;;;;;;;;10536967;28;20045;-84
2022/11/17 11:33:52;;;;;;;;;;;;;;;;;;10534470;28;20028;-85
2022/11/17 11:39:02;;;;;;;2.78;0.70;;;;;;;;;;10551252;28;19904;-84
2022/11/17 11:44:28;;;;;;;2.97;1.17;;;;;;;;;;10541844;28;20154;-82
2022/11/17 11:49:33;;;;;;;2.78;0.73;;;;;;;;;;10544057;28;20044;-83
2022/11/17 11:54:39;;;;;;;2.58;1.10;;;;;;;;;;10548668;28;20032;-84
2022/11/17 12:00:12;;;;;;;1.60;1.00;;;;;;;;;;10567933;28;20024;-85
2022/11/17 12:05:32;;;;;;;3.38;1.50;;;;;;;;;;10582259;28;20048;-83
2022/11/17 12:10:55;;;;;;;2.78;0.60;;;;;;;;;;10556573;28;20036;-85
2022/11/17 12:16:15;;;;;;;2.53;0.82;;;;;;;;;;10548237;28;20035;-86
2022/11/17 12:21:38;;;;;;;4.82;0.80;;;;;;;;;;10545175;28;20058;-83
2022/11/17 12:26:40;;;;;;;4.53;1.10;;;;;;;;;;10547394;28;20024;-85
2022/11/17 12:31:42;;;;;;;4.60;2.65;;;;;;;;;;10551491;28;20119;-84
2022/11/17 12:37:03;;;;;;;2.72;0.73;;;;;;;;;;10555535;28;20031;-84
2022/11/17 12:42:05;;;;;;;3.15;1.10;;;;;;;;;;10575334;28;20012;-84
2022/11/17 12:47:20;;;;;;;2.40;1.00;;;;;;;;;;10573710;28;20035;-84
2022/11/17 12:52:42;;;;;;;1.20;0.75;;;;;;;;;;10574100;28;20127;-84
2022/11/17 12:58:07;;;;;;;1.50;0.77;;;;;;;;;;10572353;28;20091;-86
2022/11/17 13:03:33;;;;;;;3.30;0.75;;;;;;;;;;10548833;28;20401;-87
2022/11/17 13:09:21;;;;;;;2.80;0.80;;;;;;;;;;10565242;28;20082;-85
2022/11/17 13:20:33;;;;;;;2.58;0.82;;;;;;;;;;10562080;28;20051;-85
2022/11/17 13:25:34;;;;;;;2.05;0.80;;;;;;;;;;10543772;28;20051;-84
2022/11/17 13:30:47;;;;;;;2.63;1.00;;;;;;;;;;10545048;28;20123;-86
2022/11/17 13:36:00;;;;;;;2.65;0.85;;;;;;;;;;10553378;28;20501;-84
2022/11/17 13:41:05;;;;;;;1.90;0.75;;;;;;;;;;10541119;28;20031;-84
2022/11/17 13:46:08;;;;;;;1.35;0.70;;;;;;;;;;10559241;28;20111;-84
2022/11/17 13:51:09;;;;;;;;;;;;;;;;;;10545361;28;20047;-83
2022/11/17 13:56:34;;;;;;;3.72;1.10;;;;;;;;;;10538527;28;19904;-84
2022/11/17 14:01:35;;;;;;;2.67;0.85;;;;;;;;;;10495177;28;20032;-83
2022/11/17 14:06:36;;;;;;;;;;;;;;;;;;10538880;28;20035;-84
2022/11/17 14:11:40;;;;;;;2.38;1.00;;;;;;;;;;10559821;28;19911;-84
2022/11/17 14:16:41;;;;;;;2.67;0.80;;;;;;;;;;10541742;28;20032;-83
2022/11/17 14:22:02;;;;;;;2.72;0.88;;;;;;;;;;10545893;28;20104;-82
2022/11/17 14:27:11;;;;;;;3.45;1.17;;;;;;;;;;10552748;28;20043;-83
2022/11/17 14:32:12;;;;;;;2.75;1.50;;;;;;;;;;10538339;28;20039;-84
2022/11/17 14:59:58;;;;;;;4.07;1.30;;;;;;;;;;10442935;28;20063;-84
2022/11/17 15:05:10;;;;;;;2.63;1.23;;;;;;;;;;10426628;28;20042;-82
2022/11/17 15:10:46;;;;;;;3.83;1.40;;;;;;;;;;10550810;28;20032;-84
2022/11/17 15:16:36;;;;;;;3.80;1.45;;;;;;;;;;10447469;28;20087;-84
2022/11/17 15:21:57;;;;;;;4.20;1.90;;;;;;;;;;10442802;28;20113;-84
2022/11/17 15:26:58;;;;;;;4.45;1.80;;;;;;;;;;10487737;28;20050;-85
2022/11/17 15:31:59;;;;;;;5.50;1.70;;;;;;;;;;10503840;28;20064;-85
2022/11/17 15:37:01;;;;;;;3.63;1.90;;;;;;;;;;10504442;28;20556;-84
2022/11/17 15:42:02;;;;;;;3.90;2.15;;;;;;;;;;10502638;28;20056;-85
2022/11/17 15:47:03;;;;;;;8.82;2.10;;;;;;;;;;10499388;28;20028;-85
2022/11/17 15:52:04;;;;;;;4.25;2.13;;;;;;;;;;10494914;28;20020;-85
2022/11/17 15:57:05;;;;;;;5.05;1.80;;;;;;;;;;10493609;28;20031;-86
2022/11/17 16:02:09;;;;;;;3.83;2.00;;;;;;;;;;10492858;28;20059;-86
2022/11/17 16:07:10;;;;;;;7.72;2.20;;;;;;;;;;10511879;28;20024;-86
2022/11/17 16:12:13;;;;;;;5.05;1.92;;;;;;;;;;10496039;28;20056;-86
2022/11/17 16:17:14;;;;;;;5.60;1.80;;;;;;;;;;10510488;28;20052;-86
2022/11/17 17:27:29;;;;;;;4.28;2.60;;;;;;;;;;10527458;28;20047;-82
2022/11/17 17:32:51;;;;;;;5.78;3.80;;;;;;;;;;10527275;28;20127;-85
2022/11/17 17:37:52;;;;;;;4.30;2.80;;;;;;;;;;10532323;28;20039;-84
2022/11/17 17:42:54;;;;;;;4.60;2.92;;;;;;;;;;10535987;28;20029;-84
2022/11/17 17:48:06;;;;;;;4.70;3.03;;;;;;;;;;10534873;28;20056;-84
2022/11/17 17:53:19;;;;;;;4.00;2.05;;;;;;;;;;10532693;28;20036;-85
2022/11/17 17:58:51;;;;;;;4.43;2.33;;;;;;;;;;10529318;28;20032;-84
2022/11/17 18:04:36;;;;;;;;;;;;;;;;;;;;;
2022/11/17 18:09:20;;;;;;;3.75;2.50;;;;;;;;;;10527478;28;20028;-84
2022/11/17 18:14:22;;;;;;;5.35;3.00;;;;;;;;;;10530704;28;20043;-84
2022/11/17 18:19:24;;;;;;;4.13;2.53;;;;;;;;;;10538521;28;20028;-83
2022/11/17 18:24:25;;;;;;;5.90;2.85;;;;;;;;;;10547947;28;20040;-84
2022/11/17 18:29:26;;;;;;;6.95;3.90;;;;;;;;;;10545370;28;20032;-84
2022/11/17 18:34:27;;;;;;;5.22;3.25;;;;;;;;;;10544901;28;20036;-83
2022/11/17 18:39:30;;;;;;;5.95;3.42;;;;;;;;;;10551400;28;20039;-83
2022/11/17 18:44:31;;;;;;;4.93;2.97;;;;;;;;;;10550243;28;20044;-83
2022/11/17 18:49:33;;;;;;;4.03;2.90;;;;;;;;;;10550026;28;20040;-83
2022/11/17 18:54:34;;;;;;;4.55;2.75;;;;;;;;;;10538641;28;20040;-84
2022/11/17 18:59:38;;;;;;;4.40;2.45;;;;;;;;;;10540621;28;20036;-84
2022/11/17 19:04:45;;;;;;;4.07;2.42;;;;;;;;;;10538536;28;20085;-84
2022/11/17 19:09:47;;;;;;;5.60;3.03;;;;;;;;;;10555814;28;20054;-84
2022/11/17 19:14:48;;;;;;;3.70;2.10;;;;;;;;;;10539477;28;20036;-84
2022/11/17 19:19:49;;;;;;;5.38;2.70;;;;;;;;;;10538951;28;20039;-84
2022/11/17 19:24:50;;;;;;;4.75;2.42;;;;;;;;;;10537373;28;20111;-84
2022/11/17 19:29:56;;;;;;;4.63;2.20;;;;;;;;;;10537655;28;20138;-84
2022/11/17 19:35:03;;;;;;;4.97;2.92;;;;;;;;;;10537575;28;20478;-83
2022/11/17 19:40:04;;;;;;;3.88;2.20;;;;;;;;;;10537512;28;20036;-83
2022/11/17 19:45:10;;;;;;;4.65;2.20;;;;;;;;;;10564711;28;20033;-84
2022/11/17 19:50:11;;;;;;;4.43;2.10;;;;;;;;;;10543168;28;20038;-84
2022/11/17 19:55:12;;;;;;;3.83;2.20;;;;;;;;;;10542243;28;20035;-84
2022/11/17 20:00:13;;;;;;;4.53;2.22;;;;;;;;;;10541853;28;20040;-85
2022/11/17 20:05:14;;;;;;;4.78;2.63;;;;;;;;;;10547011;28;20099;-85
2022/11/17 20:10:18;;;;;;;4.35;2.20;;;;;;;;;;10566437;28;20042;-85
2022/11/17 20:15:28;;;;;;;3.42;2.33;;;;;;;;;;10565021;28;20024;-84
2022/11/17 20:20:31;;;;;;;3.20;2.08;;;;;;;;;;10578571;28;20020;-84
